sensor_id;sensor_type;location;lat;lon;timestamp;P1;durP1;ratioP1;P2;durP2;ratioP2
19812;SDS011;10066;48.108;11.448;2023-07-31T00:03:00;2.33;;;1.43;;
19812;SDS011;10066;48.108;11.448;2023-07-31T00:05:32;2.40;;;1.70;;
19812;SDS011;10066;48.108;11.448;2023-07-31T00:08:01;4.30;;;1.60;;
19812;SDS011;10066;48.108;11.448;2023-07-31T00:10:28;2.93;;;1.73;;
19812;SDS011;10066;48.108;11.448;2023-07-31T00:12:55;4.40;;;1.63;;
19812;SDS011;10066;48.108;11.448;2023-07-31T00:15:23;2.70;;;1.60;;
19812;SDS011;10066;48.108;11.448;2023-07-31T00:17:52;3.30;;;2.00;;
19812;SDS011;10066;48.108;11.448;2023-07-31T00:20:22;5.43;;;2.03;;
19812;SDS011;10066;48.108;11.448;2023-07-31T00:22:49;4.53;;;1.80;;
19812;SDS011;10066;48.108;11.448;2023-07-31T00:25:16;3.73;;;1.87;;
19812;SDS011;10066;48.108;11.448;2023-07-31T00:27:44;2.77;;;1.60;;
19812;SDS011;10066;48.108;11.448;2023-07-31T00:30:11;3.53;;;1.80;;
19812;SDS011;10066;48.108;11.448;2023-07-31T00:32:39;3.13;;;1.40;;
19812;SDS011;10066;48.108;11.448;2023-07-31T00:35:08;3.80;;;1.60;;
19812;SDS011;10066;48.108;11.448;2023-07-31T00:37:38;5.60;;;2.10;;
19812;SDS011;10066;48.108;11.448;2023-07-31T00:40:06;4.00;;;1.80;;
19812;SDS011;10066;48.108;11.448;2023-07-31T00:42:34;2.60;;;1.70;;
19812;SDS011;10066;48.108;11.448;2023-07-31T00:45:01;3.73;;;1.73;;
19812;SDS011;10066;48.108;11.448;2023-07-31T00:47:28;2.77;;;1.77;;
19812;SDS011;10066;48.108;11.448;2023-07-31T00:49:55;3.17;;;1.57;;
19812;SDS011;10066;48.108;11.448;2023-07-31T00:52:24;3.57;;;1.87;;
19812;SDS011;10066;48.108;11.448;2023-07-31T00:54:54;3.27;;;1.77;;
19812;SDS011;10066;48.108;11.448;2023-07-31T00:57:21;4.53;;;1.73;;
19812;SDS011;10066;48.108;11.448;2023-07-31T00:59:49;2.90;;;1.67;;
19812;SDS011;10066;48.108;11.448;2023-07-31T01:02:16;5.33;;;1.70;;
19812;SDS011;10066;48.108;11.448;2023-07-31T01:04:44;3.77;;;1.70;;
19812;SDS011;10066;48.108;11.448;2023-07-31T01:07:14;2.77;;;1.70;;
19812;SDS011;10066;48.108;11.448;2023-07-31T01:09:49;4.20;;;1.77;;
19812;SDS011;10066;48.108;11.448;2023-07-31T01:12:25;3.50;;;1.73;;
19812;SDS011;10066;48.108;11.448;2023-07-31T01:15:04;3.10;;;1.60;;
19812;SDS011;10066;48.108;11.448;2023-07-31T01:17:35;5.50;;;1.80;;
19812;SDS011;10066;48.108;11.448;2023-07-31T01:20:03;6.13;;;1.60;;
19812;SDS011;10066;48.108;11.448;2023-07-31T01:22:57;4.20;;;1.57;;
19812;SDS011;10066;48.108;11.448;2023-07-31T01:25:47;2.77;;;1.60;;
19812;SDS011;10066;48.108;11.448;2023-07-31T01:28:27;2.90;;;1.53;;
19812;SDS011;10066;48.108;11.448;2023-07-31T01:30:59;2.87;;;1.60;;
19812;SDS011;10066;48.108;11.448;2023-07-31T01:33:28;4.33;;;1.67;;
19812;SDS011;10066;48.108;11.448;2023-07-31T01:35:56;2.83;;;1.77;;
19812;SDS011;10066;48.108;11.448;2023-07-31T01:38:23;3.63;;;1.43;;
19812;SDS011;10066;48.108;11.448;2023-07-31T01:40:53;4.17;;;1.70;;
19812;SDS011;10066;48.108;11.448;2023-07-31T01:43:20;7.00;;;1.70;;
19812;SDS011;10066;48.108;11.448;2023-07-31T01:45:48;2.97;;;1.53;;
19812;SDS011;10066;48.108;11.448;2023-07-31T01:48:15;3.50;;;1.50;;
19812;SDS011;10066;48.108;11.448;2023-07-31T01:50:52;3.63;;;1.83;;
19812;SDS011;10066;48.108;11.448;2023-07-31T01:53:19;4.63;;;1.53;;
19812;SDS011;10066;48.108;11.448;2023-07-31T01:55:46;3.67;;;1.80;;
19812;SDS011;10066;48.108;11.448;2023-07-31T01:58:14;4.80;;;1.60;;
19812;SDS011;10066;48.108;11.448;2023-07-31T02:00:42;5.00;;;2.07;;
19812;SDS011;10066;48.108;11.448;2023-07-31T02:03:09;4.90;;;1.67;;
19812;SDS011;10066;48.108;11.448;2023-07-31T02:05:36;2.53;;;1.50;;
19812;SDS011;10066;48.108;11.448;2023-07-31T02:08:09;3.37;;;1.80;;
19812;SDS011;10066;48.108;11.448;2023-07-31T02:10:36;3.83;;;1.83;;
19812;SDS011;10066;48.108;11.448;2023-07-31T02:13:03;3.17;;;1.70;;
19812;SDS011;10066;48.108;11.448;2023-07-31T02:15:34;4.33;;;1.97;;
19812;SDS011;10066;48.108;11.448;2023-07-31T02:18:01;2.40;;;1.77;;
19812;SDS011;10066;48.108;11.448;2023-07-31T02:20:29;6.57;;;1.93;;
19812;SDS011;10066;48.108;11.448;2023-07-31T02:22:56;3.73;;;1.77;;
19812;SDS011;10066;48.108;11.448;2023-07-31T02:25:23;2.53;;;1.50;;
19812;SDS011;10066;48.108;11.448;2023-07-31T02:27:51;2.20;;;1.40;;
19812;SDS011;10066;48.108;11.448;2023-07-31T02:30:18;3.87;;;1.80;;
19812;SDS011;10066;48.108;11.448;2023-07-31T02:32:46;2.13;;;1.50;;
19812;SDS011;10066;48.108;11.448;2023-07-31T02:35:14;3.30;;;1.43;;
19812;SDS011;10066;48.108;11.448;2023-07-31T02:37:41;4.30;;;1.80;;
19812;SDS011;10066;48.108;11.448;2023-07-31T02:40:08;2.60;;;1.70;;
19812;SDS011;10066;48.108;11.448;2023-07-31T02:42:35;2.37;;;1.60;;
19812;SDS011;10066;48.108;11.448;2023-07-31T02:45:03;2.23;;;1.50;;
19812;SDS011;10066;48.108;11.448;2023-07-31T02:47:31;3.77;;;1.70;;
19812;SDS011;10066;48.108;11.448;2023-07-31T02:49:59;2.60;;;1.63;;
19812;SDS011;10066;48.108;11.448;2023-07-31T02:52:26;3.27;;;1.50;;
19812;SDS011;10066;48.108;11.448;2023-07-31T02:54:53;2.80;;;1.80;;
19812;SDS011;10066;48.108;11.448;2023-07-31T02:57:20;3.20;;;1.50;;
19812;SDS011;10066;48.108;11.448;2023-07-31T02:59:47;3.63;;;1.60;;
19812;SDS011;10066;48.108;11.448;2023-07-31T03:02:14;3.20;;;1.60;;
19812;SDS011;10066;48.108;11.448;2023-07-31T03:04:41;3.77;;;1.70;;
19812;SDS011;10066;48.108;11.448;2023-07-31T03:07:10;4.83;;;1.77;;
19812;SDS011;10066;48.108;11.448;2023-07-31T03:09:37;4.43;;;1.70;;
19812;SDS011;10066;48.108;11.448;2023-07-31T03:12:04;3.20;;;1.80;;
19812;SDS011;10066;48.108;11.448;2023-07-31T03:14:32;5.87;;;2.00;;
19812;SDS011;10066;48.108;11.448;2023-07-31T03:16:59;5.10;;;1.83;;
19812;SDS011;10066;48.108;11.448;2023-07-31T03:19:29;5.60;;;1.90;;
19812;SDS011;10066;48.108;11.448;2023-07-31T03:21:57;3.87;;;1.57;;
19812;SDS011;10066;48.108;11.448;2023-07-31T03:24:26;3.97;;;1.90;;
19812;SDS011;10066;48.108;11.448;2023-07-31T03:26:54;3.60;;;1.80;;
19812;SDS011;10066;48.108;11.448;2023-07-31T03:29:22;3.77;;;1.73;;
19812;SDS011;10066;48.108;11.448;2023-07-31T03:31:49;2.53;;;1.70;;
19812;SDS011;10066;48.108;11.448;2023-07-31T03:34:16;3.03;;;1.70;;
19812;SDS011;10066;48.108;11.448;2023-07-31T03:36:49;2.87;;;1.73;;
19812;SDS011;10066;48.108;11.448;2023-07-31T03:39:21;2.97;;;1.87;;
19812;SDS011;10066;48.108;11.448;2023-07-31T03:41:49;4.50;;;2.17;;
19812;SDS011;10066;48.108;11.448;2023-07-31T03:44:19;4.10;;;1.87;;
19812;SDS011;10066;48.108;11.448;2023-07-31T03:46:49;3.03;;;2.10;;
19812;SDS011;10066;48.108;11.448;2023-07-31T03:49:16;6.47;;;2.00;;
19812;SDS011;10066;48.108;11.448;2023-07-31T03:51:51;3.23;;;1.90;;
19812;SDS011;10066;48.108;11.448;2023-07-31T03:54:19;4.53;;;2.23;;
19812;SDS011;10066;48.108;11.448;2023-07-31T03:56:46;3.63;;;2.10;;
19812;SDS011;10066;48.108;11.448;2023-07-31T03:59:15;5.07;;;2.20;;
19812;SDS011;10066;48.108;11.448;2023-07-31T04:01:45;6.13;;;2.73;;
19812;SDS011;10066;48.108;11.448;2023-07-31T04:04:12;3.83;;;2.30;;
19812;SDS011;10066;48.108;11.448;2023-07-31T04:06:39;3.93;;;2.30;;
19812;SDS011;10066;48.108;11.448;2023-07-31T04:09:10;3.53;;;2.20;;
19812;SDS011;10066;48.108;11.448;2023-07-31T04:11:37;5.77;;;2.50;;
19812;SDS011;10066;48.108;11.448;2023-07-31T04:14:05;2.73;;;2.47;;
19812;SDS011;10066;48.108;11.448;2023-07-31T04:16:33;4.70;;;2.13;;
19812;SDS011;10066;48.108;11.448;2023-07-31T04:19:03;5.27;;;2.30;;
19812;SDS011;10066;48.108;11.448;2023-07-31T04:21:35;3.97;;;2.17;;
19812;SDS011;10066;48.108;11.448;2023-07-31T04:24:02;3.03;;;2.23;;
19812;SDS011;10066;48.108;11.448;2023-07-31T04:26:30;4.27;;;2.47;;
19812;SDS011;10066;48.108;11.448;2023-07-31T04:28:59;5.83;;;2.67;;
19812;SDS011;10066;48.108;11.448;2023-07-31T04:31:26;4.57;;;2.43;;
19812;SDS011;10066;48.108;11.448;2023-07-31T04:33:54;5.13;;;2.60;;
19812;SDS011;10066;48.108;11.448;2023-07-31T04:36:21;5.83;;;2.70;;
19812;SDS011;10066;48.108;11.448;2023-07-31T04:38:48;5.90;;;2.57;;
19812;SDS011;10066;48.108;11.448;2023-07-31T04:41:15;4.67;;;2.77;;
19812;SDS011;10066;48.108;11.448;2023-07-31T04:43:42;5.13;;;2.97;;
19812;SDS011;10066;48.108;11.448;2023-07-31T04:46:09;5.70;;;2.93;;
19812;SDS011;10066;48.108;11.448;2023-07-31T04:48:38;3.97;;;2.30;;
19812;SDS011;10066;48.108;11.448;2023-07-31T04:51:07;3.70;;;2.13;;
19812;SDS011;10066;48.108;11.448;2023-07-31T04:53:35;5.03;;;2.17;;
19812;SDS011;10066;48.108;11.448;2023-07-31T04:56:02;4.53;;;2.37;;
19812;SDS011;10066;48.108;11.448;2023-07-31T04:58:30;5.60;;;2.80;;
19812;SDS011;10066;48.108;11.448;2023-07-31T05:00:57;4.97;;;2.57;;
19812;SDS011;10066;48.108;11.448;2023-07-31T05:03:24;5.47;;;2.60;;
19812;SDS011;10066;48.108;11.448;2023-07-31T05:05:50;4.00;;;2.73;;
19812;SDS011;10066;48.108;11.448;2023-07-31T05:08:19;6.20;;;2.37;;
19812;SDS011;10066;48.108;11.448;2023-07-31T05:10:46;7.40;;;2.30;;
19812;SDS011;10066;48.108;11.448;2023-07-31T05:13:14;4.10;;;2.37;;
19812;SDS011;10066;48.108;11.448;2023-07-31T05:15:48;4.90;;;2.40;;
19812;SDS011;10066;48.108;11.448;2023-07-31T05:18:18;4.43;;;2.20;;
19812;SDS011;10066;48.108;11.448;2023-07-31T05:20:45;4.03;;;2.47;;
19812;SDS011;10066;48.108;11.448;2023-07-31T05:23:16;4.87;;;2.70;;
19812;SDS011;10066;48.108;11.448;2023-07-31T05:25:45;4.93;;;2.20;;
19812;SDS011;10066;48.108;11.448;2023-07-31T05:28:12;3.50;;;1.83;;
19812;SDS011;10066;48.108;11.448;2023-07-31T05:30:42;3.77;;;2.37;;
19812;SDS011;10066;48.108;11.448;2023-07-31T05:33:15;4.00;;;1.90;;
19812;SDS011;10066;48.108;11.448;2023-07-31T05:35:42;4.57;;;1.70;;
19812;SDS011;10066;48.108;11.448;2023-07-31T05:38:10;4.03;;;1.90;;
19812;SDS011;10066;48.108;11.448;2023-07-31T05:40:41;4.93;;;2.10;;
19812;SDS011;10066;48.108;11.448;2023-07-31T05:43:13;4.00;;;2.03;;
19812;SDS011;10066;48.108;11.448;2023-07-31T05:45:40;4.47;;;2.03;;
19812;SDS011;10066;48.108;11.448;2023-07-31T05:48:08;5.93;;;2.10;;
19812;SDS011;10066;48.108;11.448;2023-07-31T05:50:35;4.33;;;1.70;;
19812;SDS011;10066;48.108;11.448;2023-07-31T05:53:05;5.57;;;2.47;;
19812;SDS011;10066;48.108;11.448;2023-07-31T05:55:35;5.37;;;2.07;;
19812;SDS011;10066;48.108;11.448;2023-07-31T05:58:05;2.73;;;1.80;;
19812;SDS011;10066;48.108;11.448;2023-07-31T06:00:35;3.63;;;1.60;;
19812;SDS011;10066;48.108;11.448;2023-07-31T06:03:05;3.47;;;1.70;;
19812;SDS011;10066;48.108;11.448;2023-07-31T06:05:31;4.00;;;2.00;;
19812;SDS011;10066;48.108;11.448;2023-07-31T06:07:59;3.77;;;1.50;;
19812;SDS011;10066;48.108;11.448;2023-07-31T06:10:29;2.83;;;1.73;;
19812;SDS011;10066;48.108;11.448;2023-07-31T06:12:56;4.07;;;1.70;;
19812;SDS011;10066;48.108;11.448;2023-07-31T06:15:25;6.47;;;1.60;;
19812;SDS011;10066;48.108;11.448;2023-07-31T06:17:52;3.20;;;1.60;;
19812;SDS011;10066;48.108;11.448;2023-07-31T06:20:21;4.93;;;1.50;;
19812;SDS011;10066;48.108;11.448;2023-07-31T06:22:49;4.27;;;1.93;;
19812;SDS011;10066;48.108;11.448;2023-07-31T06:25:18;3.30;;;1.53;;
19812;SDS011;10066;48.108;11.448;2023-07-31T06:27:49;4.10;;;1.50;;
19812;SDS011;10066;48.108;11.448;2023-07-31T06:30:16;2.80;;;1.40;;
19812;SDS011;10066;48.108;11.448;2023-07-31T06:32:45;2.07;;;1.27;;
19812;SDS011;10066;48.108;11.448;2023-07-31T06:35:12;2.33;;;1.60;;
19812;SDS011;10066;48.108;11.448;2023-07-31T06:37:39;3.23;;;1.77;;
19812;SDS011;10066;48.108;11.448;2023-07-31T06:40:09;2.23;;;1.40;;
19812;SDS011;10066;48.108;11.448;2023-07-31T06:42:37;1.47;;;1.23;;
19812;SDS011;10066;48.108;11.448;2023-07-31T06:45:07;3.60;;;1.47;;
19812;SDS011;10066;48.108;11.448;2023-07-31T06:47:34;3.53;;;1.57;;
19812;SDS011;10066;48.108;11.448;2023-07-31T06:50:03;2.93;;;1.30;;
19812;SDS011;10066;48.108;11.448;2023-07-31T06:52:30;1.60;;;1.20;;
19812;SDS011;10066;48.108;11.448;2023-07-31T06:55:02;4.67;;;1.53;;
19812;SDS011;10066;48.108;11.448;2023-07-31T06:57:30;4.80;;;2.00;;
19812;SDS011;10066;48.108;11.448;2023-07-31T06:59:58;2.93;;;1.37;;
19812;SDS011;10066;48.108;11.448;2023-07-31T07:02:25;3.07;;;1.47;;
19812;SDS011;10066;48.108;11.448;2023-07-31T07:04:52;2.30;;;1.53;;
19812;SDS011;10066;48.108;11.448;2023-07-31T07:07:20;2.83;;;1.20;;
19812;SDS011;10066;48.108;11.448;2023-07-31T07:09:47;4.27;;;1.37;;
19812;SDS011;10066;48.108;11.448;2023-07-31T07:12:14;4.90;;;1.60;;
19812;SDS011;10066;48.108;11.448;2023-07-31T07:14:41;4.17;;;1.70;;
19812;SDS011;10066;48.108;11.448;2023-07-31T07:17:08;2.30;;;1.20;;
19812;SDS011;10066;48.108;11.448;2023-07-31T07:19:35;1.73;;;1.20;;
19812;SDS011;10066;48.108;11.448;2023-07-31T07:22:02;3.33;;;1.30;;
19812;SDS011;10066;48.108;11.448;2023-07-31T07:24:31;2.90;;;1.40;;
19812;SDS011;10066;48.108;11.448;2023-07-31T07:26:58;5.00;;;1.40;;
19812;SDS011;10066;48.108;11.448;2023-07-31T07:29:25;3.33;;;1.77;;
19812;SDS011;10066;48.108;11.448;2023-07-31T07:31:52;2.83;;;1.20;;
19812;SDS011;10066;48.108;11.448;2023-07-31T07:34:19;4.40;;;1.20;;
19812;SDS011;10066;48.108;11.448;2023-07-31T07:36:48;2.37;;;1.27;;
19812;SDS011;10066;48.108;11.448;2023-07-31T07:39:15;2.03;;;1.40;;
19812;SDS011;10066;48.108;11.448;2023-07-31T07:41:44;5.37;;;1.70;;
19812;SDS011;10066;48.108;11.448;2023-07-31T07:44:10;4.33;;;1.67;;
19812;SDS011;10066;48.108;11.448;2023-07-31T07:46:38;2.83;;;1.50;;
19812;SDS011;10066;48.108;11.448;2023-07-31T07:49:06;2.70;;;1.40;;
19812;SDS011;10066;48.108;11.448;2023-07-31T07:51:33;2.87;;;1.30;;
19812;SDS011;10066;48.108;11.448;2023-07-31T07:53:59;3.33;;;1.30;;
19812;SDS011;10066;48.108;11.448;2023-07-31T07:56:29;3.83;;;1.60;;
19812;SDS011;10066;48.108;11.448;2023-07-31T07:58:57;4.03;;;1.30;;
19812;SDS011;10066;48.108;11.448;2023-07-31T08:01:24;2.10;;;1.13;;
19812;SDS011;10066;48.108;11.448;2023-07-31T08:03:51;3.07;;;1.43;;
19812;SDS011;10066;48.108;11.448;2023-07-31T08:06:18;2.47;;;1.13;;
19812;SDS011;10066;48.108;11.448;2023-07-31T08:08:45;3.00;;;1.57;;
19812;SDS011;10066;48.108;11.448;2023-07-31T08:11:12;2.53;;;1.50;;
19812;SDS011;10066;48.108;11.448;2023-07-31T08:13:39;6.63;;;1.23;;
19812;SDS011;10066;48.108;11.448;2023-07-31T08:16:11;3.20;;;1.30;;
19812;SDS011;10066;48.108;11.448;2023-07-31T08:18:39;3.63;;;1.57;;
19812;SDS011;10066;48.108;11.448;2023-07-31T08:21:07;3.90;;;1.50;;
19812;SDS011;10066;48.108;11.448;2023-07-31T08:23:34;3.23;;;1.33;;
19812;SDS011;10066;48.108;11.448;2023-07-31T08:26:01;4.40;;;1.37;;
19812;SDS011;10066;48.108;11.448;2023-07-31T08:28:28;2.23;;;1.30;;
19812;SDS011;10066;48.108;11.448;2023-07-31T08:30:55;2.93;;;1.67;;
19812;SDS011;10066;48.108;11.448;2023-07-31T08:33:23;3.40;;;1.70;;
19812;SDS011;10066;48.108;11.448;2023-07-31T08:35:50;2.93;;;1.40;;
19812;SDS011;10066;48.108;11.448;2023-07-31T08:38:17;2.50;;;1.63;;
19812;SDS011;10066;48.108;11.448;2023-07-31T08:40:44;2.43;;;1.17;;
19812;SDS011;10066;48.108;11.448;2023-07-31T08:43:11;4.73;;;1.30;;
19812;SDS011;10066;48.108;11.448;2023-07-31T08:45:38;5.50;;;1.50;;
19812;SDS011;10066;48.108;11.448;2023-07-31T08:48:08;3.73;;;1.60;;
19812;SDS011;10066;48.108;11.448;2023-07-31T08:50:37;3.53;;;1.30;;
19812;SDS011;10066;48.108;11.448;2023-07-31T08:53:04;2.67;;;1.57;;
19812;SDS011;10066;48.108;11.448;2023-07-31T08:55:32;3.23;;;1.60;;
19812;SDS011;10066;48.108;11.448;2023-07-31T08:57:59;4.90;;;1.60;;
19812;SDS011;10066;48.108;11.448;2023-07-31T09:00:31;4.57;;;1.40;;
19812;SDS011;10066;48.108;11.448;2023-07-31T09:02:59;4.23;;;2.43;;
19812;SDS011;10066;48.108;11.448;2023-07-31T09:05:28;2.43;;;1.40;;
19812;SDS011;10066;48.108;11.448;2023-07-31T09:07:57;3.60;;;1.73;;
19812;SDS011;10066;48.108;11.448;2023-07-31T09:10:26;1.90;;;1.57;;
19812;SDS011;10066;48.108;11.448;2023-07-31T09:12:53;3.40;;;1.40;;
19812;SDS011;10066;48.108;11.448;2023-07-31T09:15:21;3.57;;;1.20;;
19812;SDS011;10066;48.108;11.448;2023-07-31T09:17:56;3.20;;;1.40;;
19812;SDS011;10066;48.108;11.448;2023-07-31T09:20:25;3.13;;;1.57;;
19812;SDS011;10066;48.108;11.448;2023-07-31T09:22:54;3.57;;;1.40;;
19812;SDS011;10066;48.108;11.448;2023-07-31T09:25:23;2.67;;;1.20;;
19812;SDS011;10066;48.108;11.448;2023-07-31T09:27:53;3.07;;;1.50;;
19812;SDS011;10066;48.108;11.448;2023-07-31T09:30:21;2.60;;;1.10;;
19812;SDS011;10066;48.108;11.448;2023-07-31T09:32:50;3.53;;;1.57;;
19812;SDS011;10066;48.108;11.448;2023-07-31T09:35:21;4.40;;;1.30;;
19812;SDS011;10066;48.108;11.448;2023-07-31T09:37:50;3.07;;;1.30;;
19812;SDS011;10066;48.108;11.448;2023-07-31T09:40:29;2.40;;;1.30;;
19812;SDS011;10066;48.108;11.448;2023-07-31T09:42:57;4.07;;;1.70;;
19812;SDS011;10066;48.108;11.448;2023-07-31T09:45:28;2.73;;;1.53;;
19812;SDS011;10066;48.108;11.448;2023-07-31T09:47:55;3.50;;;1.20;;
19812;SDS011;10066;48.108;11.448;2023-07-31T09:50:23;2.20;;;1.20;;
19812;SDS011;10066;48.108;11.448;2023-07-31T09:52:51;3.10;;;1.30;;
19812;SDS011;10066;48.108;11.448;2023-07-31T09:55:18;3.53;;;1.40;;
19812;SDS011;10066;48.108;11.448;2023-07-31T09:57:50;4.20;;;1.60;;
19812;SDS011;10066;48.108;11.448;2023-07-31T10:00:18;2.97;;;1.40;;
19812;SDS011;10066;48.108;11.448;2023-07-31T10:02:50;3.20;;;1.40;;
19812;SDS011;10066;48.108;11.448;2023-07-31T10:05:19;3.23;;;1.30;;
19812;SDS011;10066;48.108;11.448;2023-07-31T10:07:49;2.60;;;1.63;;
19812;SDS011;10066;48.108;11.448;2023-07-31T10:10:22;4.13;;;1.83;;
19812;SDS011;10066;48.108;11.448;2023-07-31T10:12:51;5.03;;;1.60;;
19812;SDS011;10066;48.108;11.448;2023-07-31T10:15:19;6.43;;;2.77;;
19812;SDS011;10066;48.108;11.448;2023-07-31T10:17:49;4.93;;;1.40;;
19812;SDS011;10066;48.108;11.448;2023-07-31T10:20:16;3.30;;;1.47;;
19812;SDS011;10066;48.108;11.448;2023-07-31T10:22:44;3.80;;;2.20;;
19812;SDS011;10066;48.108;11.448;2023-07-31T10:25:12;1.93;;;1.30;;
19812;SDS011;10066;48.108;11.448;2023-07-31T10:27:39;3.27;;;1.50;;
19812;SDS011;10066;48.108;11.448;2023-07-31T10:30:11;2.77;;;1.43;;
19812;SDS011;10066;48.108;11.448;2023-07-31T10:32:40;2.20;;;1.23;;
19812;SDS011;10066;48.108;11.448;2023-07-31T10:35:09;1.93;;;1.30;;
19812;SDS011;10066;48.108;11.448;2023-07-31T10:37:38;4.00;;;1.50;;
19812;SDS011;10066;48.108;11.448;2023-07-31T10:40:09;4.00;;;1.40;;
19812;SDS011;10066;48.108;11.448;2023-07-31T10:42:38;2.77;;;1.30;;
19812;SDS011;10066;48.108;11.448;2023-07-31T10:45:23;2.43;;;1.50;;
19812;SDS011;10066;48.108;11.448;2023-07-31T10:47:57;1.50;;;1.20;;
19812;SDS011;10066;48.108;11.448;2023-07-31T10:50:26;4.77;;;1.97;;
19812;SDS011;10066;48.108;11.448;2023-07-31T10:52:54;3.17;;;1.50;;
19812;SDS011;10066;48.108;11.448;2023-07-31T10:55:24;5.53;;;1.70;;
19812;SDS011;10066;48.108;11.448;2023-07-31T10:57:56;1.90;;;1.23;;
19812;SDS011;10066;48.108;11.448;2023-07-31T11:00:27;2.33;;;1.20;;
19812;SDS011;10066;48.108;11.448;2023-07-31T11:02:59;2.87;;;1.30;;
19812;SDS011;10066;48.108;11.448;2023-07-31T11:08:15;3.27;;;1.57;;
19812;SDS011;10066;48.108;11.448;2023-07-31T11:10:44;2.80;;;1.37;;
19812;SDS011;10066;48.108;11.448;2023-07-31T11:13:12;2.80;;;1.50;;
19812;SDS011;10066;48.108;11.448;2023-07-31T11:15:41;2.37;;;1.37;;
19812;SDS011;10066;48.108;11.448;2023-07-31T11:18:08;3.10;;;1.50;;
19812;SDS011;10066;48.108;11.448;2023-07-31T11:20:36;3.90;;;1.30;;
19812;SDS011;10066;48.108;11.448;2023-07-31T11:23:06;5.73;;;1.50;;
19812;SDS011;10066;48.108;11.448;2023-07-31T11:25:34;3.40;;;1.67;;
19812;SDS011;10066;48.108;11.448;2023-07-31T11:28:02;3.97;;;1.40;;
19812;SDS011;10066;48.108;11.448;2023-07-31T11:30:31;4.27;;;1.50;;
19812;SDS011;10066;48.108;11.448;2023-07-31T11:33:00;5.33;;;1.60;;
19812;SDS011;10066;48.108;11.448;2023-07-31T11:35:29;3.13;;;1.43;;
19812;SDS011;10066;48.108;11.448;2023-07-31T11:37:57;2.90;;;1.50;;
19812;SDS011;10066;48.108;11.448;2023-07-31T11:40:24;2.50;;;1.60;;
19812;SDS011;10066;48.108;11.448;2023-07-31T11:42:54;1.90;;;1.33;;
19812;SDS011;10066;48.108;11.448;2023-07-31T11:45:25;3.23;;;1.40;;
19812;SDS011;10066;48.108;11.448;2023-07-31T11:47:54;7.97;;;1.40;;
19812;SDS011;10066;48.108;11.448;2023-07-31T11:50:23;3.13;;;1.40;;
19812;SDS011;10066;48.108;11.448;2023-07-31T11:52:52;2.33;;;1.27;;
19812;SDS011;10066;48.108;11.448;2023-07-31T11:55:22;2.03;;;1.10;;
19812;SDS011;10066;48.108;11.448;2023-07-31T11:57:49;2.97;;;1.40;;
19812;SDS011;10066;48.108;11.448;2023-07-31T12:00:17;3.53;;;1.47;;
19812;SDS011;10066;48.108;11.448;2023-07-31T12:02:45;3.73;;;1.53;;
19812;SDS011;10066;48.108;11.448;2023-07-31T12:05:12;3.83;;;1.47;;
19812;SDS011;10066;48.108;11.448;2023-07-31T12:07:45;3.97;;;1.50;;
19812;SDS011;10066;48.108;11.448;2023-07-31T12:10:22;3.70;;;1.63;;
19812;SDS011;10066;48.108;11.448;2023-07-31T12:12:55;3.27;;;1.37;;
19812;SDS011;10066;48.108;11.448;2023-07-31T12:15:28;3.30;;;1.40;;
19812;SDS011;10066;48.108;11.448;2023-07-31T12:18:06;3.53;;;1.40;;
19812;SDS011;10066;48.108;11.448;2023-07-31T12:20:35;2.43;;;1.33;;
19812;SDS011;10066;48.108;11.448;2023-07-31T12:23:08;2.10;;;1.50;;
19812;SDS011;10066;48.108;11.448;2023-07-31T12:25:40;3.60;;;1.73;;
19812;SDS011;10066;48.108;11.448;2023-07-31T12:28:07;2.87;;;1.30;;
19812;SDS011;10066;48.108;11.448;2023-07-31T12:30:37;2.23;;;1.30;;
19812;SDS011;10066;48.108;11.448;2023-07-31T12:33:06;4.10;;;1.43;;
19812;SDS011;10066;48.108;11.448;2023-07-31T12:35:44;2.97;;;1.50;;
19812;SDS011;10066;48.108;11.448;2023-07-31T12:38:13;3.00;;;1.33;;
19812;SDS011;10066;48.108;11.448;2023-07-31T12:40:41;4.60;;;1.43;;
19812;SDS011;10066;48.108;11.448;2023-07-31T12:43:08;2.97;;;1.60;;
19812;SDS011;10066;48.108;11.448;2023-07-31T12:45:35;2.83;;;1.37;;
19812;SDS011;10066;48.108;11.448;2023-07-31T12:48:02;2.03;;;1.30;;
19812;SDS011;10066;48.108;11.448;2023-07-31T12:50:29;3.77;;;1.40;;
19812;SDS011;10066;48.108;11.448;2023-07-31T12:52:56;3.53;;;1.30;;
19812;SDS011;10066;48.108;11.448;2023-07-31T12:55:25;3.40;;;1.50;;
19812;SDS011;10066;48.108;11.448;2023-07-31T12:57:53;1.83;;;1.13;;
19812;SDS011;10066;48.108;11.448;2023-07-31T13:00:20;6.07;;;1.30;;
19812;SDS011;10066;48.108;11.448;2023-07-31T13:02:47;2.07;;;1.37;;
19812;SDS011;10066;48.108;11.448;2023-07-31T13:05:14;4.63;;;1.60;;
19812;SDS011;10066;48.108;11.448;2023-07-31T13:07:41;2.77;;;1.27;;
19812;SDS011;10066;48.108;11.448;2023-07-31T13:10:08;2.73;;;1.90;;
19812;SDS011;10066;48.108;11.448;2023-07-31T13:12:41;3.23;;;1.60;;
19812;SDS011;10066;48.108;11.448;2023-07-31T13:15:09;3.07;;;1.30;;
19812;SDS011;10066;48.108;11.448;2023-07-31T13:17:36;2.87;;;1.30;;
19812;SDS011;10066;48.108;11.448;2023-07-31T13:20:03;2.83;;;1.67;;
19812;SDS011;10066;48.108;11.448;2023-07-31T13:22:32;1.83;;;1.23;;
19812;SDS011;10066;48.108;11.448;2023-07-31T13:24:59;1.70;;;1.20;;
19812;SDS011;10066;48.108;11.448;2023-07-31T13:27:26;2.13;;;1.20;;
19812;SDS011;10066;48.108;11.448;2023-07-31T13:29:54;5.67;;;1.27;;
19812;SDS011;10066;48.108;11.448;2023-07-31T13:32:21;3.50;;;1.40;;
19812;SDS011;10066;48.108;11.448;2023-07-31T13:34:48;3.77;;;1.63;;
19812;SDS011;10066;48.108;11.448;2023-07-31T13:37:15;2.77;;;1.30;;
19812;SDS011;10066;48.108;11.448;2023-07-31T13:39:42;3.70;;;1.50;;
19812;SDS011;10066;48.108;11.448;2023-07-31T13:42:10;3.23;;;1.20;;
19812;SDS011;10066;48.108;11.448;2023-07-31T13:44:38;4.00;;;1.30;;
19812;SDS011;10066;48.108;11.448;2023-07-31T13:47:06;2.53;;;1.30;;
19812;SDS011;10066;48.108;11.448;2023-07-31T13:49:34;4.00;;;1.50;;
19812;SDS011;10066;48.108;11.448;2023-07-31T13:52:02;2.57;;;1.30;;
19812;SDS011;10066;48.108;11.448;2023-07-31T13:54:29;3.77;;;1.67;;
19812;SDS011;10066;48.108;11.448;2023-07-31T13:56:56;2.33;;;1.30;;
19812;SDS011;10066;48.108;11.448;2023-07-31T13:59:23;2.00;;;1.20;;
19812;SDS011;10066;48.108;11.448;2023-07-31T14:01:50;3.47;;;1.30;;
19812;SDS011;10066;48.108;11.448;2023-07-31T14:04:18;3.17;;;1.43;;
19812;SDS011;10066;48.108;11.448;2023-07-31T14:06:45;3.33;;;1.53;;
19812;SDS011;10066;48.108;11.448;2023-07-31T14:09:13;2.40;;;1.63;;
19812;SDS011;10066;48.108;11.448;2023-07-31T14:11:40;3.20;;;1.37;;
19812;SDS011;10066;48.108;11.448;2023-07-31T14:14:08;5.30;;;1.40;;
19812;SDS011;10066;48.108;11.448;2023-07-31T14:16:35;4.53;;;1.33;;
19812;SDS011;10066;48.108;11.448;2023-07-31T14:19:02;2.23;;;1.40;;
19812;SDS011;10066;48.108;11.448;2023-07-31T14:21:30;4.37;;;1.40;;
19812;SDS011;10066;48.108;11.448;2023-07-31T14:23:57;2.47;;;1.33;;
19812;SDS011;10066;48.108;11.448;2023-07-31T14:26:24;2.10;;;1.27;;
19812;SDS011;10066;48.108;11.448;2023-07-31T14:28:51;2.20;;;1.43;;
19812;SDS011;10066;48.108;11.448;2023-07-31T14:31:19;2.90;;;1.30;;
19812;SDS011;10066;48.108;11.448;2023-07-31T14:33:46;1.40;;;1.13;;
19812;SDS011;10066;48.108;11.448;2023-07-31T14:36:13;3.63;;;1.30;;
19812;SDS011;10066;48.108;11.448;2023-07-31T14:38:41;4.50;;;1.33;;
19812;SDS011;10066;48.108;11.448;2023-07-31T14:41:08;1.57;;;1.00;;
19812;SDS011;10066;48.108;11.448;2023-07-31T14:43:35;3.60;;;1.43;;
19812;SDS011;10066;48.108;11.448;2023-07-31T14:46:02;1.93;;;1.40;;